• Join FlightAware (Why Join?)
  • Login
  • US Flag GB Flag 
03:29 EDT


 

Airport Tracker/Info


-or-


 

Live Flight TrackerFlight Track Log ✈ SWA561 ✈ 12-Apr-2013 ✈ KLAX - KSFO

Flight Track Log - Related Links

Times and Time Zones

All times are in EDT time to prevent confusion due to time zone crossing. See the SWA561 flight status page for this flight to view local times or setup timezone preferences in your user account.

Time Position Orientation Groundspeed Altitude Reporting Facility
EDT Latitude Longitude Course Direction KTS MPH feet Rate Location/Type
23:16 33.9461 -118.4536 264° West 159 183 1,500  Level Los Angeles Center
23:17 33.9394 -118.5267 264° West 223 257 4,200 2,820 Climbing Los Angeles Center
23:18 33.9319 -118.6133 264° West 259 298 7,400 3,120 Climbing Los Angeles Center
23:19 33.9228 -118.7172 264° West 289 333 10,700 2,640 Climbing Los Angeles Center
23:20 33.9136 -118.8139 264° West 320 368 12,900 1,440 Climbing Los Angeles Center
23:21 33.9033 -118.9308 264° West 351 404 13,700 2,340 Climbing Los Angeles Center
23:22 33.9544 -119.0583 296° West 362 417 17,700 3,480 Climbing Los Angeles Center
23:23 34.0247 -119.1486 313° West 368 423 20,900 2,820 Climbing Los Angeles Center
23:24 34.0975 -119.2411 314° West 379 436 23,600 2,460 Climbing Los Angeles Center
23:25 34.1711 -119.3369 313° West 386 444 26,000 2,160 Climbing Los Angeles Center
23:26 34.2475 -119.4358 313° West 397 457 28,100 2,220 Climbing Los Angeles Center
23:27 34.3244 -119.5367 313° West 405 466 30,700 2,280 Climbing Los Angeles Center
23:28 34.4014 -119.6339 314° West 403 464 32,800 1,560 Climbing Los Angeles Center
23:29 34.4900 -119.7489 313° West 393 452 34,000 540 Climbing Los Angeles Center
23:31 34.5681 -119.8394 316° Northwest 389 448 34,000  Level Los Angeles Center
23:32 34.6383 -119.9144 319° Northwest 386 444 34,000  Level Los Angeles Center
23:33 34.7344 -120.0178 319° Northwest 387 445 34,000  Level Los Angeles Center
23:34 34.8150 -120.1053 318° Northwest 391 450 34,000  Level Los Angeles Center
23:35 34.8931 -120.1925 318° Northwest 385 443 34,000  Level Los Angeles Center
23:36 34.9725 -120.2800 318° Northwest 388 447 34,000  Level Los Angeles Center
23:37 35.0528 -120.3669 318° Northwest 388 447 34,000  Level Los Angeles Center
23:38 35.1322 -120.4558 318° Northwest 389 448 34,000  Level Los Angeles Center
23:39 35.2264 -120.5619 317° Northwest 386 444 34,000  Level Los Angeles Center
23:40 35.3094 -120.6447 321° Northwest 386 444 34,000  Level Los Angeles Center
23:41 35.4142 -120.7353 325° Northwest 384 442 34,000  Level Los Angeles Center
23:41 35.4497 -120.7650 326° Northwest 389 448 34,000  Level Oakland Center
23:42 35.5361 -120.8433 324° Northwest 387 445 34,000  Level Oakland Center
23:43 35.6233 -120.9231 323° Northwest 389 448 34,000  Level Oakland Center
23:44 35.7097 -121.0017 324° Northwest 387 445 34,000  Level Oakland Center
23:45 35.7961 -121.0806 323° Northwest 387 445 34,000  Level Oakland Center
23:46 35.8822 -121.1597 323° Northwest 385 443 34,000  Level Oakland Center
23:47 35.9689 -121.2381 324° Northwest 384 442 34,000 -180 Level Oakland Center
23:48 36.0550 -121.3186 323° Northwest 388 447 33,700 -1,140 Descending Oakland Center
23:50 36.1372 -121.3956 323° Northwest 370 426 31,800 -2,100 Descending Oakland Center
23:51 36.2317 -121.4850 323° Northwest 355 409 29,500 -2,040 Descending Oakland Center
23:52 36.3097 -121.5556 324° Northwest 352 405 27,700 -1,860 Descending Oakland Center
23:53 36.3869 -121.6289 323° Northwest 348 400 25,800 -1,920 Descending Oakland Center
23:54 36.4647 -121.6994 324° Northwest 344 396 23,900 -1,800 Descending Oakland Center
23:55 36.5392 -121.7711 322° Northwest 334 384 22,200 -1,800 Descending Oakland Center
23:56 36.6094 -121.8358 324° Northwest 317 365 20,300 -1,380 Descending Oakland Center
23:57 36.6769 -121.8969 324° Northwest 304 350 19,400 -1,260 Descending Oakland Center
23:58 36.7667 -121.9667 328° Northwest 305 351 17,800 -1,500 Descending Northern Cal TRACON
23:59 36.8333 -121.9833 349° North 299 344 16,400 -1,500 Descending Northern Cal TRACON
00:00 36.9167 -122.0167 342° North 293 337 14,800 -1,500 Descending Northern Cal TRACON
00:01 37.0000 -122.0333 351° North 289 333 13,400 -1,560 Descending Northern Cal TRACON
00:02 37.0808 -122.0517 350° North 286 329 11,700 -1,560 Descending Oakland Center
00:03 37.1603 -122.0725 348° North 290 334 10,200 -840 Descending Oakland Center
00:04 37.2231 -122.1181 330° Northwest 283 326 10,000 -780 Descending Oakland Center
00:05 37.2669 -122.1997 304° West 287 330 8,700 -900 Descending Oakland Center
00:06 37.3064 -122.2708 305° West 262 302 8,200 -840 Descending Oakland Center
00:07 37.3625 -122.2519 15° North 234 269 7,000 -1,140 Descending Oakland Center
00:08 37.3969 -122.1800 59° Northeast 239 275 6,000 -1,320 Descending Oakland Center
00:09 37.4333 -122.1167 54° Northeast 230 265 4,600 -1,080 Descending Northern Cal TRACON
00:10 37.5000 -122.1333 349° North 221 254 4,000 -600 Descending Northern Cal TRACON
00:11 37.5333 -122.1833 310° West 210 242 3,500 -780 Descending Northern Cal TRACON
00:12 37.5667 -122.2333 310° West 181 208 2,500 -1,200 Descending Northern Cal TRACON
00:13 37.5833 -122.3000 288° West 163 188 1,200 -1,020 Descending Northern Cal TRACON
00:14 37.6000 -122.3333 302° West 131 151 400 -780 Descending Northern Cal TRACON
00:17 37.6167 -122.3667 322° Northwest  Level FlightAware Approximate